sensor_id;sensor_type;location;lat;lon;timestamp;pressure;altitude;pressure_sealevel;temperature;humidity
77572;BME280;67214;47.454;18.966;2023-02-21T00:00:04;100192.86;;;2.62;82.64
77572;BME280;67214;47.454;18.966;2023-02-21T00:02:50;100203.58;;;2.66;83.60
77572;BME280;67214;47.454;18.966;2023-02-21T00:05:35;100191.84;;;2.83;82.96
77572;BME280;67214;47.454;18.966;2023-02-21T00:08:21;100190.91;;;2.75;82.57
77572;BME280;67214;47.454;18.966;2023-02-21T00:11:06;100193.56;;;2.65;82.78
77572;BME280;67214;47.454;18.966;2023-02-21T00:13:51;100173.34;;;2.69;82.72
77572;BME280;67214;47.454;18.966;2023-02-21T00:16:37;100178.48;;;2.70;82.46
77572;BME280;67214;47.454;18.966;2023-02-21T00:19:22;100179.16;;;2.65;82.46
77572;BME280;67214;47.454;18.966;2023-02-21T00:22:07;100182.70;;;2.56;82.60
77572;BME280;67214;47.454;18.966;2023-02-21T00:24:52;100180.81;;;2.49;82.75
77572;BME280;67214;47.454;18.966;2023-02-21T00:27:38;100182.77;;;2.54;83.33
77572;BME280;67214;47.454;18.966;2023-02-21T00:30:23;100174.39;;;2.56;83.50
77572;BME280;67214;47.454;18.966;2023-02-21T00:33:08;100185.83;;;2.54;83.15
77572;BME280;67214;47.454;18.966;2023-02-21T00:35:53;100179.47;;;2.41;83.30
77572;BME280;67214;47.454;18.966;2023-02-21T00:38:38;100174.63;;;2.42;83.33
77572;BME280;67214;47.454;18.966;2023-02-21T00:41:23;100169.41;;;2.42;83.62
77572;BME280;67214;47.454;18.966;2023-02-21T00:44:09;100186.90;;;2.50;83.20
77572;BME280;67214;47.454;18.966;2023-02-21T00:46:54;100194.26;;;2.42;83.43
77572;BME280;67214;47.454;18.966;2023-02-21T00:49:40;100177.92;;;2.37;84.04
77572;BME280;67214;47.454;18.966;2023-02-21T00:52:25;100179.37;;;2.33;83.97
77572;BME280;67214;47.454;18.966;2023-02-21T00:55:10;100173.05;;;2.29;83.68
77572;BME280;67214;47.454;18.966;2023-02-21T00:57:56;100168.81;;;2.26;83.73
77572;BME280;67214;47.454;18.966;2023-02-21T01:00:41;100158.80;;;2.26;84.03
77572;BME280;67214;47.454;18.966;2023-02-21T01:03:27;100173.75;;;2.32;83.73
77572;BME280;67214;47.454;18.966;2023-02-21T01:06:12;100170.58;;;2.26;83.86
77572;BME280;67214;47.454;18.966;2023-02-21T01:08:57;100160.05;;;2.27;84.18
77572;BME280;67214;47.454;18.966;2023-02-21T01:11:42;100162.27;;;2.26;83.92
77572;BME280;67214;47.454;18.966;2023-02-21T01:14:28;100163.22;;;2.34;83.99
77572;BME280;67214;47.454;18.966;2023-02-21T01:17:13;100165.41;;;2.24;83.94
77572;BME280;67214;47.454;18.966;2023-02-21T01:20:00;100153.63;;;2.24;84.05
77572;BME280;67214;47.454;18.966;2023-02-21T01:22:46;100162.69;;;2.17;83.93
77572;BME280;67214;47.454;18.966;2023-02-21T01:25:31;100160.17;;;2.16;83.99
77572;BME280;67214;47.454;18.966;2023-02-21T01:28:17;100163.30;;;2.14;84.26
77572;BME280;67214;47.454;18.966;2023-02-21T01:31:02;100166.91;;;2.11;84.19
77572;BME280;67214;47.454;18.966;2023-02-21T01:33:48;100170.39;;;2.20;84.42
77572;BME280;67214;47.454;18.966;2023-02-21T01:36:33;100163.94;;;2.19;84.24
77572;BME280;67214;47.454;18.966;2023-02-21T01:39:18;100168.32;;;2.18;84.11
77572;BME280;67214;47.454;18.966;2023-02-21T01:42:03;100166.62;;;2.17;83.61
77572;BME280;67214;47.454;18.966;2023-02-21T01:45:05;100166.97;;;2.10;83.37
77572;BME280;67214;47.454;18.966;2023-02-21T01:47:37;100160.33;;;2.03;83.44
77572;BME280;67214;47.454;18.966;2023-02-21T01:50:26;100156.42;;;1.93;83.43
77572;BME280;67214;47.454;18.966;2023-02-21T01:53:14;100160.24;;;1.85;83.39
77572;BME280;67214;47.454;18.966;2023-02-21T01:56:00;100154.16;;;1.85;83.83
77572;BME280;67214;47.454;18.966;2023-02-21T01:58:48;100149.73;;;1.87;83.90
77572;BME280;67214;47.454;18.966;2023-02-21T02:01:45;100140.58;;;1.87;84.49
77572;BME280;67214;47.454;18.966;2023-02-21T02:04:32;100127.14;;;1.95;84.09
77572;BME280;67214;47.454;18.966;2023-02-21T02:07:18;100113.17;;;1.85;84.01
77572;BME280;67214;47.454;18.966;2023-02-21T02:10:05;100117.70;;;1.82;83.99
77572;BME280;67214;47.454;18.966;2023-02-21T02:13:12;100108.71;;;1.87;84.02
77572;BME280;67214;47.454;18.966;2023-02-21T02:15:54;100104.55;;;1.83;84.01
77572;BME280;67214;47.454;18.966;2023-02-21T02:35:31;100113.78;;;1.82;84.21
77572;BME280;67214;47.454;18.966;2023-02-21T02:38:18;100096.39;;;1.81;84.41
77572;BME280;67214;47.454;18.966;2023-02-21T02:40:59;100096.95;;;1.87;84.29
77572;BME280;67214;47.454;18.966;2023-02-21T02:43:40;100100.05;;;1.87;84.26
77572;BME280;67214;47.454;18.966;2023-02-21T02:46:22;100102.12;;;1.89;84.34
77572;BME280;67214;47.454;18.966;2023-02-21T02:49:11;100084.81;;;1.86;84.28
77572;BME280;67214;47.454;18.966;2023-02-21T02:51:38;100084.02;;;1.84;84.33
77572;BME280;67214;47.454;18.966;2023-02-21T02:54:06;100077.34;;;1.87;84.57
77572;BME280;67214;47.454;18.966;2023-02-21T02:56:33;100096.98;;;1.96;84.24
77572;BME280;67214;47.454;18.966;2023-02-21T03:04:43;100083.61;;;1.94;84.42
77572;BME280;67214;47.454;18.966;2023-02-21T03:10:11;100069.38;;;2.18;84.08
77572;BME280;67214;47.454;18.966;2023-02-21T03:15:20;100057.41;;;2.31;83.54
77572;BME280;67214;47.454;18.966;2023-02-21T03:18:00;100069.28;;;3.15;82.09
77572;BME280;67214;47.454;18.966;2023-02-21T03:20:26;100058.75;;;4.74;75.74
77572;BME280;67214;47.454;18.966;2023-02-21T03:22:56;100040.95;;;5.30;73.57
77572;BME280;67214;47.454;18.966;2023-02-21T03:25:25;100054.17;;;5.35;73.59
77572;BME280;67214;47.454;18.966;2023-02-21T03:27:53;100046.56;;;5.17;74.16
77572;BME280;67214;47.454;18.966;2023-02-21T03:30:21;100057.82;;;5.19;73.71
77572;BME280;67214;47.454;18.966;2023-02-21T03:32:51;100059.47;;;4.91;74.88
77572;BME280;67214;47.454;18.966;2023-02-21T03:35:20;100069.58;;;4.83;74.67
77572;BME280;67214;47.454;18.966;2023-02-21T03:37:50;100078.23;;;4.62;75.43
77572;BME280;67214;47.454;18.966;2023-02-21T03:40:29;100072.91;;;4.48;75.68
77572;BME280;67214;47.454;18.966;2023-02-21T03:42:59;100074.79;;;4.24;76.75
77572;BME280;67214;47.454;18.966;2023-02-21T03:45:27;100074.09;;;4.36;76.22
77572;BME280;67214;47.454;18.966;2023-02-21T03:47:54;100075.20;;;4.32;76.30
77572;BME280;67214;47.454;18.966;2023-02-21T03:50:21;100052.83;;;5.07;74.24
77572;BME280;67214;47.454;18.966;2023-02-21T03:52:49;100060.59;;;6.48;69.39
77572;BME280;67214;47.454;18.966;2023-02-21T03:55:17;100052.06;;;6.97;67.79
77572;BME280;67214;47.454;18.966;2023-02-21T03:57:44;100054.22;;;8.04;64.07
77572;BME280;67214;47.454;18.966;2023-02-21T04:00:13;100056.68;;;8.49;62.14
77572;BME280;67214;47.454;18.966;2023-02-21T04:02:41;100055.58;;;8.70;61.21
77572;BME280;67214;47.454;18.966;2023-02-21T04:05:08;100029.16;;;8.81;61.45
77572;BME280;67214;47.454;18.966;2023-02-21T04:07:36;100050.01;;;8.91;60.71
77572;BME280;67214;47.454;18.966;2023-02-21T04:10:03;100040.41;;;8.96;60.39
77572;BME280;67214;47.454;18.966;2023-02-21T04:12:31;100041.78;;;8.77;60.80
77572;BME280;67214;47.454;18.966;2023-02-21T04:14:59;100039.06;;;8.90;60.38
77572;BME280;67214;47.454;18.966;2023-02-21T04:17:26;100036.31;;;8.92;60.43
77572;BME280;67214;47.454;18.966;2023-02-21T04:19:53;100032.76;;;8.74;60.78
77572;BME280;67214;47.454;18.966;2023-02-21T04:22:21;100037.28;;;9.02;59.79
77572;BME280;67214;47.454;18.966;2023-02-21T04:24:48;100034.00;;;8.93;59.79
77572;BME280;67214;47.454;18.966;2023-02-21T04:27:16;100047.06;;;9.12;59.30
77572;BME280;67214;47.454;18.966;2023-02-21T04:29:44;100041.98;;;9.09;59.20
77572;BME280;67214;47.454;18.966;2023-02-21T04:32:12;100048.52;;;9.16;59.08
77572;BME280;67214;47.454;18.966;2023-02-21T04:34:39;100031.33;;;9.50;58.26
77572;BME280;67214;47.454;18.966;2023-02-21T04:37:07;100050.02;;;9.65;57.78
77572;BME280;67214;47.454;18.966;2023-02-21T04:39:34;100023.65;;;9.52;58.02
77572;BME280;67214;47.454;18.966;2023-02-21T04:42:02;100032.91;;;9.52;57.95
77572;BME280;67214;47.454;18.966;2023-02-21T04:44:29;100024.95;;;9.58;57.79
77572;BME280;67214;47.454;18.966;2023-02-21T04:46:57;100030.87;;;9.61;57.58
77572;BME280;67214;47.454;18.966;2023-02-21T04:49:24;100031.47;;;9.48;57.92
77572;BME280;67214;47.454;18.966;2023-02-21T04:51:53;100038.20;;;9.47;58.00
77572;BME280;67214;47.454;18.966;2023-02-21T04:54:20;100042.91;;;9.49;57.94
77572;BME280;67214;47.454;18.966;2023-02-21T04:56:48;100046.75;;;9.56;57.36
77572;BME280;67214;47.454;18.966;2023-02-21T04:59:15;100043.63;;;9.67;56.95
77572;BME280;67214;47.454;18.966;2023-02-21T05:01:43;100043.15;;;9.57;57.43
77572;BME280;67214;47.454;18.966;2023-02-21T05:04:10;100056.12;;;9.54;57.15
77572;BME280;67214;47.454;18.966;2023-02-21T05:06:38;100048.30;;;9.47;57.37
77572;BME280;67214;47.454;18.966;2023-02-21T05:09:05;100055.62;;;9.38;57.37
77572;BME280;67214;47.454;18.966;2023-02-21T05:11:34;100051.08;;;9.51;57.19
77572;BME280;67214;47.454;18.966;2023-02-21T05:14:01;100049.40;;;9.56;56.90
77572;BME280;67214;47.454;18.966;2023-02-21T05:16:29;100060.34;;;9.40;57.35
77572;BME280;67214;47.454;18.966;2023-02-21T05:18:56;100058.27;;;9.27;57.92
77572;BME280;67214;47.454;18.966;2023-02-21T05:21:23;100073.59;;;9.00;58.75
77572;BME280;67214;47.454;18.966;2023-02-21T05:23:51;100072.59;;;8.90;58.86
77572;BME280;67214;47.454;18.966;2023-02-21T05:26:24;100068.41;;;8.63;59.78
77572;BME280;67214;47.454;18.966;2023-02-21T05:28:51;100075.00;;;8.87;58.72
77572;BME280;67214;47.454;18.966;2023-02-21T05:31:20;100073.23;;;8.69;59.48
77572;BME280;67214;47.454;18.966;2023-02-21T05:33:47;100065.22;;;8.47;60.45
77572;BME280;67214;47.454;18.966;2023-02-21T05:36:15;100071.27;;;8.24;61.27
77572;BME280;67214;47.454;18.966;2023-02-21T05:38:48;100081.28;;;7.95;62.49
77572;BME280;67214;47.454;18.966;2023-02-21T05:41:16;100069.96;;;7.75;62.79
77572;BME280;67214;47.454;18.966;2023-02-21T05:43:45;100071.07;;;8.45;60.45
77572;BME280;67214;47.454;18.966;2023-02-21T05:46:22;100053.67;;;8.77;59.29
77572;BME280;67214;47.454;18.966;2023-02-21T05:48:50;100063.13;;;8.69;59.35
77572;BME280;67214;47.454;18.966;2023-02-21T05:51:19;100064.98;;;8.50;60.39
77572;BME280;67214;47.454;18.966;2023-02-21T05:53:46;100045.98;;;8.27;61.13
77572;BME280;67214;47.454;18.966;2023-02-21T05:56:15;100064.78;;;8.04;62.22
77572;BME280;67214;47.454;18.966;2023-02-21T05:58:43;100063.04;;;7.79;63.00
77572;BME280;67214;47.454;18.966;2023-02-21T06:01:11;100070.71;;;7.77;63.07
77572;BME280;67214;47.454;18.966;2023-02-21T06:03:38;100062.02;;;7.69;63.24
77572;BME280;67214;47.454;18.966;2023-02-21T06:06:06;100059.38;;;7.69;63.50
77572;BME280;67214;47.454;18.966;2023-02-21T06:08:41;100077.54;;;8.41;60.95
77572;BME280;67214;47.454;18.966;2023-02-21T06:11:09;100075.61;;;8.25;61.83
77572;BME280;67214;47.454;18.966;2023-02-21T06:13:37;100082.48;;;8.09;62.16
77572;BME280;67214;47.454;18.966;2023-02-21T06:16:05;100081.53;;;8.10;62.54
77572;BME280;67214;47.454;18.966;2023-02-21T06:18:32;100082.75;;;7.99;63.10
77572;BME280;67214;47.454;18.966;2023-02-21T06:21:00;100083.17;;;8.06;62.86
77572;BME280;67214;47.454;18.966;2023-02-21T06:23:27;100079.69;;;8.05;62.86
77572;BME280;67214;47.454;18.966;2023-02-21T06:25:55;100085.29;;;8.01;63.06
77572;BME280;67214;47.454;18.966;2023-02-21T06:28:27;100087.86;;;8.08;62.98
77572;BME280;67214;47.454;18.966;2023-02-21T06:30:55;100075.78;;;8.11;62.87
77572;BME280;67214;47.454;18.966;2023-02-21T06:33:23;100072.58;;;8.18;62.92
77572;BME280;67214;47.454;18.966;2023-02-21T06:35:51;100086.36;;;8.29;62.55
77572;BME280;67214;47.454;18.966;2023-02-21T06:38:18;100093.39;;;8.23;62.97
77572;BME280;67214;47.454;18.966;2023-02-21T06:40:46;100090.76;;;8.28;62.64
77572;BME280;67214;47.454;18.966;2023-02-21T06:43:14;100091.78;;;8.33;62.82
77572;BME280;67214;47.454;18.966;2023-02-21T06:45:41;100094.08;;;8.79;61.19
77572;BME280;67214;47.454;18.966;2023-02-21T06:48:13;100088.42;;;8.78;61.67
77572;BME280;67214;47.454;18.966;2023-02-21T06:50:39;100109.75;;;8.94;61.23
77572;BME280;67214;47.454;18.966;2023-02-21T06:53:07;100114.19;;;8.88;61.63
77572;BME280;67214;47.454;18.966;2023-02-21T06:55:34;100106.16;;;8.95;61.31
77572;BME280;67214;47.454;18.966;2023-02-21T06:58:02;100099.58;;;9.06;61.32
77572;BME280;67214;47.454;18.966;2023-02-21T07:00:29;100094.42;;;9.10;61.51
77572;BME280;67214;47.454;18.966;2023-02-21T07:02:58;100100.34;;;9.19;61.46
77572;BME280;67214;47.454;18.966;2023-02-21T07:05:25;100096.30;;;9.43;60.50
77572;BME280;67214;47.454;18.966;2023-02-21T07:07:54;100103.17;;;9.51;60.75
77572;BME280;67214;47.454;18.966;2023-02-21T07:10:21;100103.09;;;9.80;58.94
77572;BME280;67214;47.454;18.966;2023-02-21T07:12:49;100105.86;;;10.29;57.46
77572;BME280;67214;47.454;18.966;2023-02-21T07:15:16;100108.91;;;10.18;57.58
77572;BME280;67214;47.454;18.966;2023-02-21T07:17:44;100105.69;;;10.52;56.53
77572;BME280;67214;47.454;18.966;2023-02-21T07:20:11;100118.91;;;10.69;55.03
77572;BME280;67214;47.454;18.966;2023-02-21T07:22:39;100115.29;;;10.76;54.87
77572;BME280;67214;47.454;18.966;2023-02-21T07:25:06;100120.74;;;11.00;53.87
77572;BME280;67214;47.454;18.966;2023-02-21T07:27:34;100116.92;;;11.14;53.60
77572;BME280;67214;47.454;18.966;2023-02-21T07:30:01;100116.05;;;11.25;52.82
77572;BME280;67214;47.454;18.966;2023-02-21T07:32:29;100111.91;;;11.26;54.05
77572;BME280;67214;47.454;18.966;2023-02-21T07:34:56;100130.86;;;11.27;52.95
77572;BME280;67214;47.454;18.966;2023-02-21T07:37:23;100130.38;;;11.28;53.21
77572;BME280;67214;47.454;18.966;2023-02-21T07:39:53;100126.30;;;11.24;53.63
77572;BME280;67214;47.454;18.966;2023-02-21T07:42:20;100130.28;;;11.24;53.90
77572;BME280;67214;47.454;18.966;2023-02-21T07:44:48;100120.89;;;11.19;54.53
77572;BME280;67214;47.454;18.966;2023-02-21T07:47:15;100119.70;;;11.54;53.68
77572;BME280;67214;47.454;18.966;2023-02-21T07:49:43;100117.88;;;11.60;53.27
77572;BME280;67214;47.454;18.966;2023-02-21T07:52:10;100118.16;;;11.78;53.03
77572;BME280;67214;47.454;18.966;2023-02-21T07:54:38;100121.34;;;12.02;51.94
77572;BME280;67214;47.454;18.966;2023-02-21T07:57:05;100130.83;;;12.10;51.57
77572;BME280;67214;47.454;18.966;2023-02-21T07:59:33;100132.19;;;12.04;51.70
77572;BME280;67214;47.454;18.966;2023-02-21T08:02:00;100138.44;;;12.09;51.79
77572;BME280;67214;47.454;18.966;2023-02-21T08:04:28;100124.87;;;12.12;51.66
77572;BME280;67214;47.454;18.966;2023-02-21T08:06:59;100134.16;;;12.27;51.08
77572;BME280;67214;47.454;18.966;2023-02-21T08:09:27;100130.04;;;12.29;51.51
77572;BME280;67214;47.454;18.966;2023-02-21T08:11:54;100130.20;;;12.37;51.13
77572;BME280;67214;47.454;18.966;2023-02-21T08:14:22;100134.23;;;12.31;51.23
77572;BME280;67214;47.454;18.966;2023-02-21T08:16:49;100126.38;;;12.45;51.16
77572;BME280;67214;47.454;18.966;2023-02-21T08:19:17;100123.07;;;12.37;51.32
77572;BME280;67214;47.454;18.966;2023-02-21T08:21:46;100131.05;;;12.37;50.87
77572;BME280;67214;47.454;18.966;2023-02-21T08:24:15;100141.73;;;12.47;51.18
77572;BME280;67214;47.454;18.966;2023-02-21T08:26:43;100137.30;;;12.51;50.97
77572;BME280;67214;47.454;18.966;2023-02-21T08:29:12;100154.43;;;12.43;51.73
77572;BME280;67214;47.454;18.966;2023-02-21T08:31:40;100141.77;;;12.41;51.19
77572;BME280;67214;47.454;18.966;2023-02-21T08:34:10;100144.47;;;12.51;51.51
77572;BME280;67214;47.454;18.966;2023-02-21T08:36:40;100138.75;;;12.65;50.44
77572;BME280;67214;47.454;18.966;2023-02-21T08:39:09;100156.48;;;12.70;51.20
77572;BME280;67214;47.454;18.966;2023-02-21T08:41:42;100150.80;;;12.69;51.83
77572;BME280;67214;47.454;18.966;2023-02-21T08:44:12;100157.66;;;12.72;51.27
77572;BME280;67214;47.454;18.966;2023-02-21T08:46:41;100146.80;;;12.69;50.89
77572;BME280;67214;47.454;18.966;2023-02-21T08:49:10;100167.48;;;12.71;51.73
77572;BME280;67214;47.454;18.966;2023-02-21T08:51:37;100145.47;;;12.69;51.22
77572;BME280;67214;47.454;18.966;2023-02-21T08:54:06;100163.70;;;12.74;51.75
77572;BME280;67214;47.454;18.966;2023-02-21T08:56:34;100146.93;;;12.58;51.73
77572;BME280;67214;47.454;18.966;2023-02-21T08:59:01;100153.09;;;12.68;52.18
77572;BME280;67214;47.454;18.966;2023-02-21T09:01:32;100139.38;;;12.73;51.98
77572;BME280;67214;47.454;18.966;2023-02-21T09:04:01;100126.23;;;12.81;51.83
77572;BME280;67214;47.454;18.966;2023-02-21T09:06:29;100150.82;;;12.88;51.80
77572;BME280;67214;47.454;18.966;2023-02-21T09:08:56;100137.94;;;12.93;51.89
77572;BME280;67214;47.454;18.966;2023-02-21T09:11:23;100137.74;;;12.91;52.14
77572;BME280;67214;47.454;18.966;2023-02-21T09:13:51;100142.64;;;13.05;52.28
77572;BME280;67214;47.454;18.966;2023-02-21T09:16:20;100130.19;;;13.25;51.26
77572;BME280;67214;47.454;18.966;2023-02-21T09:18:58;100139.95;;;13.11;50.88
77572;BME280;67214;47.454;18.966;2023-02-21T09:21:27;100146.16;;;12.96;51.31
77572;BME280;67214;47.454;18.966;2023-02-21T09:23:56;100140.39;;;13.00;51.37
77572;BME280;67214;47.454;18.966;2023-02-21T09:26:24;100139.84;;;13.07;51.10
77572;BME280;67214;47.454;18.966;2023-02-21T09:28:54;100142.04;;;13.17;51.32
77572;BME280;67214;47.454;18.966;2023-02-21T09:31:21;100140.29;;;13.21;51.23
77572;BME280;67214;47.454;18.966;2023-02-21T09:33:48;100128.50;;;13.33;50.90
77572;BME280;67214;47.454;18.966;2023-02-21T09:36:16;100148.83;;;13.25;51.54
77572;BME280;67214;47.454;18.966;2023-02-21T09:38:45;100139.25;;;13.28;51.49
77572;BME280;67214;47.454;18.966;2023-02-21T09:41:13;100140.09;;;13.19;51.24
77572;BME280;67214;47.454;18.966;2023-02-21T09:43:44;100127.05;;;13.35;51.66
77572;BME280;67214;47.454;18.966;2023-02-21T09:48:51;100131.06;;;13.58;51.30
77572;BME280;67214;47.454;18.966;2023-02-21T09:51:19;100133.60;;;13.60;51.16
77572;BME280;67214;47.454;18.966;2023-02-21T09:53:48;100149.39;;;13.38;51.82
77572;BME280;67214;47.454;18.966;2023-02-21T09:56:34;100153.97;;;13.32;51.84
77572;BME280;67214;47.454;18.966;2023-02-21T09:58:59;100126.91;;;13.36;52.38
77572;BME280;67214;47.454;18.966;2023-02-21T10:07:12;100130.64;;;13.63;51.56
77572;BME280;67214;47.454;18.966;2023-02-21T10:20:54;100137.09;;;14.30;50.58
77572;BME280;67214;47.454;18.966;2023-02-21T10:23:36;100136.30;;;14.33;50.39
77572;BME280;67214;47.454;18.966;2023-02-21T10:26:09;100131.14;;;14.46;49.92
77572;BME280;67214;47.454;18.966;2023-02-21T10:28:37;100138.92;;;14.06;50.60
77572;BME280;67214;47.454;18.966;2023-02-21T10:31:17;100120.77;;;14.19;50.59
77572;BME280;67214;47.454;18.966;2023-02-21T10:33:39;100117.75;;;14.41;50.42
77572;BME280;67214;47.454;18.966;2023-02-21T10:36:17;100111.43;;;14.43;50.35
77572;BME280;67214;47.454;18.966;2023-02-21T10:38:58;100112.64;;;14.62;50.20
77572;BME280;67214;47.454;18.966;2023-02-21T10:41:22;100113.18;;;14.52;50.14
77572;BME280;67214;47.454;18.966;2023-02-21T10:43:54;100114.69;;;14.50;50.87
77572;BME280;67214;47.454;18.966;2023-02-21T10:49:23;100128.80;;;14.60;50.41
77572;BME280;67214;47.454;18.966;2023-02-21T10:52:10;100127.05;;;14.37;50.97
77572;BME280;67214;47.454;18.966;2023-02-21T10:54:38;100118.56;;;14.56;50.21
77572;BME280;67214;47.454;18.966;2023-02-21T10:57:09;100108.15;;;14.49;50.15
77572;BME280;67214;47.454;18.966;2023-02-21T10:59:39;100119.85;;;14.52;52.07
77572;BME280;67214;47.454;18.966;2023-02-21T11:02:29;100123.91;;;14.56;50.53
77572;BME280;67214;47.454;18.966;2023-02-21T11:07:37;100116.84;;;14.96;50.12
77572;BME280;67214;47.454;18.966;2023-02-21T11:13:06;100123.30;;;14.93;49.93
77572;BME280;67214;47.454;18.966;2023-02-21T11:15:34;100107.48;;;14.64;50.62
77572;BME280;67214;47.454;18.966;2023-02-21T11:18:10;100125.37;;;14.68;50.20
77572;BME280;67214;47.454;18.966;2023-02-21T11:20:32;100115.84;;;14.65;51.68
77572;BME280;67214;47.454;18.966;2023-02-21T11:22:59;100118.16;;;14.78;50.19
77572;BME280;67214;47.454;18.966;2023-02-21T11:25:32;100105.11;;;14.75;50.36
77572;BME280;67214;47.454;18.966;2023-02-21T11:31:36;100104.72;;;14.70;50.70
77572;BME280;67214;47.454;18.966;2023-02-21T11:33:20;100105.25;;;14.73;50.69
77572;BME280;67214;47.454;18.966;2023-02-21T11:35:53;100098.98;;;15.00;50.46
77572;BME280;67214;47.454;18.966;2023-02-21T11:38:41;100095.69;;;15.02;49.96
77572;BME280;67214;47.454;18.966;2023-02-21T11:41:22;100105.23;;;14.87;50.83
77572;BME280;67214;47.454;18.966;2023-02-21T11:43:51;100095.72;;;15.06;50.34
77572;BME280;67214;47.454;18.966;2023-02-21T11:46:35;100095.76;;;15.10;51.07
77572;BME280;67214;47.454;18.966;2023-02-21T11:51:57;100094.05;;;14.56;50.67
77572;BME280;67214;47.454;18.966;2023-02-21T11:54:26;100082.59;;;14.77;51.19
77572;BME280;67214;47.454;18.966;2023-02-21T12:19:38;100083.48;;;15.00;51.02
77572;BME280;67214;47.454;18.966;2023-02-21T12:27:53;100089.15;;;15.01;50.99
77572;BME280;67214;47.454;18.966;2023-02-21T12:30:45;100082.40;;;15.10;50.71
77572;BME280;67214;47.454;18.966;2023-02-21T12:33:34;100098.31;;;14.80;51.37
77572;BME280;67214;47.454;18.966;2023-02-21T12:36:08;100085.34;;;14.85;51.08
77572;BME280;67214;47.454;18.966;2023-02-21T12:38:53;100084.69;;;15.05;51.24
77572;BME280;67214;47.454;18.966;2023-02-21T12:44:27;100081.88;;;15.72;49.94
77572;BME280;67214;47.454;18.966;2023-02-21T12:46:56;100076.86;;;16.07;48.69
77572;BME280;67214;47.454;18.966;2023-02-21T12:49:31;100073.66;;;15.69;49.63
77572;BME280;67214;47.454;18.966;2023-02-21T12:52:01;100079.85;;;16.00;48.51
77572;BME280;67214;47.454;18.966;2023-02-21T12:54:41;100066.79;;;15.19;50.55
77572;BME280;67214;47.454;18.966;2023-02-21T12:57:20;100068.06;;;14.94;50.96
77572;BME280;67214;47.454;18.966;2023-02-21T13:05:15;100066.17;;;14.27;52.60
77572;BME280;67214;47.454;18.966;2023-02-21T13:07:51;100068.22;;;14.29;52.63
77572;BME280;67214;47.454;18.966;2023-02-21T13:10:21;100077.71;;;14.73;51.96
77572;BME280;67214;47.454;18.966;2023-02-21T13:13:10;100070.13;;;14.82;51.41
77572;BME280;67214;47.454;18.966;2023-02-21T13:15:40;100064.96;;;15.20;49.99
77572;BME280;67214;47.454;18.966;2023-02-21T13:18:32;100069.89;;;15.80;49.19
77572;BME280;67214;47.454;18.966;2023-02-21T13:20:44;100066.33;;;16.01;48.81
77572;BME280;67214;47.454;18.966;2023-02-21T13:23:52;100064.48;;;16.56;47.48
77572;BME280;67214;47.454;18.966;2023-02-21T13:26:27;100065.77;;;15.60;49.43
77572;BME280;67214;47.454;18.966;2023-02-21T13:28:55;100072.91;;;14.59;51.70
77572;BME280;67214;47.454;18.966;2023-02-21T13:31:31;100067.13;;;16.40;47.76
77572;BME280;67214;47.454;18.966;2023-02-21T13:33:58;100073.67;;;16.45;47.89
77572;BME280;67214;47.454;18.966;2023-02-21T13:39:27;100047.00;;;15.52;50.10
77572;BME280;67214;47.454;18.966;2023-02-21T13:42:15;100058.78;;;15.97;48.85
77572;BME280;67214;47.454;18.966;2023-02-21T13:44:42;100063.28;;;15.96;48.63
77572;BME280;67214;47.454;18.966;2023-02-21T13:47:16;100063.39;;;15.53;49.12
77572;BME280;67214;47.454;18.966;2023-02-21T13:49:52;100060.47;;;16.56;47.17
77572;BME280;67214;47.454;18.966;2023-02-21T13:57:50;100041.98;;;17.19;45.04
77572;BME280;67214;47.454;18.966;2023-02-21T14:08:29;100039.61;;;15.75;48.47
77572;BME280;67214;47.454;18.966;2023-02-21T14:16:32;100048.95;;;16.05;48.23
77572;BME280;67214;47.454;18.966;2023-02-21T14:19:05;100036.87;;;15.16;50.01
77572;BME280;67214;47.454;18.966;2023-02-21T14:21:42;100038.11;;;16.73;46.49
77572;BME280;67214;47.454;18.966;2023-02-21T14:24:31;100035.67;;;17.83;43.95
77572;BME280;67214;47.454;18.966;2023-02-21T14:45:43;100038.31;;;18.65;41.79
77572;BME280;67214;47.454;18.966;2023-02-21T14:48:33;100048.56;;;18.27;42.94
77572;BME280;67214;47.454;18.966;2023-02-21T14:56:59;100055.34;;;16.62;46.23
77572;BME280;67214;47.454;18.966;2023-02-21T15:02:45;100062.94;;;15.95;47.51
77572;BME280;67214;47.454;18.966;2023-02-21T15:05:37;100061.45;;;15.02;49.38
77572;BME280;67214;47.454;18.966;2023-02-21T15:08:16;100063.94;;;14.46;50.91
77572;BME280;67214;47.454;18.966;2023-02-21T15:10:46;100059.66;;;13.98;51.79
77572;BME280;67214;47.454;18.966;2023-02-21T15:13:27;100057.17;;;13.74;52.45
77572;BME280;67214;47.454;18.966;2023-02-21T15:16:02;100067.23;;;13.43;53.49
77572;BME280;67214;47.454;18.966;2023-02-21T15:18:36;100062.40;;;13.33;53.81
77572;BME280;67214;47.454;18.966;2023-02-21T15:23:45;100075.82;;;13.18;54.21
77572;BME280;67214;47.454;18.966;2023-02-21T15:26:18;100076.30;;;13.08;54.21
77572;BME280;67214;47.454;18.966;2023-02-21T15:29:08;100068.16;;;13.09;54.57
77572;BME280;67214;47.454;18.966;2023-02-21T15:31:54;100072.05;;;13.11;54.53
77572;BME280;67214;47.454;18.966;2023-02-21T15:34:34;100075.89;;;13.22;54.06
77572;BME280;67214;47.454;18.966;2023-02-21T15:37:13;100066.20;;;13.21;54.08
77572;BME280;67214;47.454;18.966;2023-02-21T15:39:39;100063.28;;;13.14;54.17
77572;BME280;67214;47.454;18.966;2023-02-21T15:42:09;100067.09;;;13.12;54.21
77572;BME280;67214;47.454;18.966;2023-02-21T15:44:43;100066.44;;;13.14;54.23
77572;BME280;67214;47.454;18.966;2023-02-21T15:47:12;100064.26;;;13.13;54.36